createdAt,value
2018-09-05T00:01:45.150Z,13.40
2018-09-05T00:04:13.422Z,13.30
2018-09-05T00:06:41.761Z,13.20
2018-09-05T00:09:10.265Z,13.20
2018-09-05T00:11:39.360Z,13.10
2018-09-05T00:14:08.201Z,13.10
2018-09-05T00:16:36.654Z,13.00
2018-09-05T00:19:05.371Z,12.90
2018-09-05T00:21:33.650Z,12.90
2018-09-05T00:24:01.960Z,12.90
2018-09-05T00:26:30.228Z,12.90
2018-09-05T00:28:58.500Z,13.10
2018-09-05T00:31:26.786Z,13.10
2018-09-05T00:33:55.064Z,13.20
2018-09-05T00:36:23.358Z,13.20
2018-09-05T00:38:51.663Z,13.10
2018-09-05T00:41:19.943Z,13.10
2018-09-05T00:43:48.231Z,13.10
2018-09-05T00:46:16.637Z,13.00
2018-09-05T00:48:44.902Z,13.00
2018-09-05T00:51:13.202Z,12.90
2018-09-05T00:53:41.514Z,12.80
2018-09-05T00:56:09.803Z,12.80
2018-09-05T00:58:38.098Z,12.80
2018-09-05T01:01:06.372Z,12.70
2018-09-05T01:03:34.638Z,12.80
2018-09-05T01:06:02.907Z,12.80
2018-09-05T01:08:31.202Z,12.80
2018-09-05T01:10:59.483Z,12.70
2018-09-05T01:13:27.761Z,12.70
2018-09-05T01:15:56.072Z,12.60
2018-09-05T01:18:24.362Z,12.60
2018-09-05T01:20:52.642Z,12.70
2018-09-05T01:23:20.923Z,12.80
2018-09-05T01:25:49.207Z,12.80
2018-09-05T01:28:17.532Z,12.70
2018-09-05T01:30:45.800Z,12.80
2018-09-05T01:33:14.094Z,12.80
2018-09-05T01:35:42.370Z,12.90
2018-09-05T01:38:10.651Z,12.90
2018-09-05T01:40:38.918Z,12.80
2018-09-05T01:43:07.244Z,12.90
2018-09-05T01:45:35.506Z,12.90
2018-09-05T01:48:03.815Z,12.90
2018-09-05T01:50:37.556Z,12.90
2018-09-05T01:53:05.864Z,12.90
2018-09-05T01:55:34.168Z,12.90
2018-09-05T01:58:02.442Z,12.90
2018-09-05T02:00:34.177Z,12.80
2018-09-05T02:03:03.185Z,12.80
2018-09-05T02:05:31.465Z,12.80
2018-09-05T02:08:00.687Z,12.70
2018-09-05T02:10:29.266Z,12.70
2018-09-05T02:12:57.568Z,12.70
2018-09-05T02:15:25.951Z,12.70
2018-09-05T02:17:54.230Z,12.70
2018-09-05T02:20:22.628Z,12.70
2018-09-05T02:22:51.122Z,12.70
2018-09-05T02:25:19.392Z,12.80
2018-09-05T02:27:47.710Z,12.80
2018-09-05T02:30:16.004Z,12.90
2018-09-05T02:32:44.299Z,12.80
2018-09-05T02:35:12.595Z,12.80
2018-09-05T02:37:41.377Z,12.80
2018-09-05T02:40:09.703Z,12.80
2018-09-05T02:42:38.154Z,12.80
2018-09-05T02:45:06.476Z,12.80
2018-09-05T02:47:35.026Z,12.70
2018-09-05T02:50:03.494Z,12.70
2018-09-05T02:52:32.252Z,12.70
2018-09-05T02:55:00.530Z,12.70
2018-09-05T02:57:28.789Z,12.70
2018-09-05T02:59:57.049Z,12.80
2018-09-05T03:02:25.306Z,12.70
2018-09-05T03:04:53.664Z,12.80
2018-09-05T03:07:21.938Z,12.70
2018-09-05T03:09:50.192Z,12.80
2018-09-05T03:12:19.616Z,12.80
2018-09-05T03:14:48.559Z,12.70
2018-09-05T03:17:16.820Z,12.70
2018-09-05T03:19:45.091Z,12.70
2018-09-05T03:22:13.355Z,12.60
2018-09-05T03:24:41.681Z,12.60
2018-09-05T03:27:09.941Z,12.50
2018-09-05T03:29:38.230Z,12.50
2018-09-05T03:32:06.544Z,12.30
2018-09-05T03:34:34.781Z,12.20
2018-09-05T03:37:03.233Z,12.20
2018-09-05T03:39:31.518Z,12.20
2018-09-05T03:41:59.788Z,12.20
2018-09-05T03:44:29.092Z,12.10
2018-09-05T03:46:57.347Z,12.10
2018-09-05T03:49:25.616Z,12.10
2018-09-05T03:51:53.884Z,12.00
2018-09-05T03:54:22.164Z,12.00
2018-09-05T03:56:50.429Z,11.90
2018-09-05T03:59:18.855Z,11.90
2018-09-05T04:01:47.140Z,12.00
2018-09-05T04:04:15.427Z,12.10
2018-09-05T04:06:43.698Z,12.00
2018-09-05T04:09:12.028Z,12.00
2018-09-05T04:11:40.360Z,12.10
2018-09-05T04:14:08.641Z,12.10
2018-09-05T04:16:36.919Z,12.00
2018-09-05T04:19:05.202Z,12.10
2018-09-05T04:21:33.502Z,12.10
2018-09-05T04:24:01.774Z,12.10
2018-09-05T04:26:30.051Z,12.10
2018-09-05T04:28:58.324Z,12.10
2018-09-05T04:31:26.639Z,12.10
2018-09-05T04:33:54.920Z,12.00
2018-09-05T04:36:23.256Z,12.00
2018-09-05T04:38:51.528Z,11.90
2018-09-05T04:41:19.808Z,11.90
2018-09-05T04:43:48.078Z,11.90
2018-09-05T04:46:17.900Z,11.80
2018-09-05T04:48:46.230Z,11.80
2018-09-05T04:51:14.612Z,11.90
2018-09-05T04:53:42.981Z,11.90
2018-09-05T04:56:11.264Z,12.00
2018-09-05T04:58:39.629Z,12.10
2018-09-05T05:01:07.904Z,12.10
2018-09-05T05:03:36.171Z,12.00
2018-09-05T05:06:05.046Z,12.10
2018-09-05T05:08:33.298Z,12.20
2018-09-05T05:11:01.572Z,12.20
2018-09-05T05:13:29.842Z,12.20
2018-09-05T05:15:58.115Z,12.20
2018-09-05T05:18:27.309Z,12.20
2018-09-05T05:20:55.611Z,12.20
2018-09-05T05:23:24.102Z,12.30
2018-09-05T05:25:53.248Z,12.30
2018-09-05T05:28:21.540Z,12.30
2018-09-05T05:30:49.810Z,12.40
2018-09-05T05:33:18.096Z,12.50
2018-09-05T05:35:46.608Z,12.60
2018-09-05T05:38:14.942Z,12.70
2018-09-05T05:40:43.288Z,12.80
2018-09-05T05:43:11.886Z,12.80
2018-09-05T05:45:40.767Z,12.90
2018-09-05T05:48:09.180Z,13.00
2018-09-05T05:50:38.827Z,13.00
2018-09-05T05:53:07.722Z,13.00
2018-09-05T05:55:36.910Z,12.90
2018-09-05T05:58:05.615Z,12.90
2018-09-05T06:00:33.915Z,12.90
2018-09-05T06:03:02.174Z,12.80
2018-09-05T06:05:30.454Z,13.00
2018-09-05T06:07:58.731Z,13.20
2018-09-05T06:10:27.838Z,13.20
2018-09-05T06:12:57.941Z,13.40
2018-09-05T06:15:27.292Z,13.50
2018-09-05T06:17:55.696Z,13.60
2018-09-05T06:20:24.235Z,13.80
2018-09-05T06:22:52.672Z,13.90
2018-09-05T06:25:21.010Z,14.10
2018-09-05T06:27:49.435Z,14.00
2018-09-05T06:30:17.653Z,14.30
2018-09-05T06:32:45.926Z,14.20
2018-09-05T06:35:14.211Z,14.30
2018-09-05T06:37:42.496Z,14.40
2018-09-05T06:40:10.786Z,14.60
2018-09-05T06:42:39.064Z,14.60
2018-09-05T06:45:07.525Z,14.80
2018-09-05T06:47:35.720Z,15.10
2018-09-05T06:50:04.036Z,15.30
2018-09-05T06:52:32.309Z,15.70
2018-09-05T06:55:00.624Z,16.00
2018-09-05T06:57:28.920Z,15.90
2018-09-05T06:59:57.198Z,16.00
2018-09-05T07:02:26.344Z,16.30
2018-09-05T07:04:55.088Z,16.50
2018-09-05T07:07:23.372Z,16.60
2018-09-05T07:09:51.694Z,17.20
2018-09-05T07:12:20.028Z,17.60
2018-09-05T07:14:48.313Z,17.60
2018-09-05T07:17:16.627Z,17.70
2018-09-05T07:19:44.910Z,17.60
2018-09-05T07:22:14.363Z,17.60
2018-09-05T07:24:43.734Z,17.60
2018-09-05T07:27:12.042Z,17.60
2018-09-05T07:29:41.687Z,17.80
2018-09-05T07:32:10.251Z,18.70
2018-09-05T07:34:39.198Z,20.00
2018-09-05T07:37:07.476Z,22.00
2018-09-05T07:39:35.753Z,23.40
2018-09-05T07:42:04.070Z,24.70
2018-09-05T07:44:32.552Z,26.50
2018-09-05T07:47:00.863Z,26.50
2018-09-05T07:49:29.159Z,26.80
2018-09-05T07:51:57.426Z,27.80
2018-09-05T07:54:25.746Z,27.70
2018-09-05T07:56:54.002Z,29.60
2018-09-05T07:59:22.318Z,31.00
2018-09-05T08:01:50.594Z,30.90
2018-09-05T08:04:18.899Z,31.90
2018-09-05T08:06:47.164Z,32.20
2018-09-05T08:09:15.419Z,32.80
2018-09-05T08:11:43.731Z,32.90
2018-09-05T08:14:12.249Z,33.00
2018-09-05T08:16:40.550Z,33.00
2018-09-05T08:19:08.822Z,34.40
2018-09-05T08:21:37.074Z,34.90
2018-09-05T08:24:05.377Z,35.20
2018-09-05T08:26:33.958Z,34.60
2018-09-05T08:29:02.262Z,33.90
2018-09-05T08:31:30.491Z,34.40
2018-09-05T08:33:58.750Z,35.70
2018-09-05T08:36:27.283Z,34.30
2018-09-05T08:38:55.349Z,35.50
2018-09-05T08:41:23.786Z,36.30
2018-09-05T08:43:52.032Z,36.90
2018-09-05T08:46:20.295Z,38.60
2018-09-05T08:48:48.524Z,39.20
2018-09-05T08:51:16.844Z,39.90
2018-09-05T08:53:45.114Z,38.80
2018-09-05T08:56:13.481Z,36.30
2018-09-05T08:58:41.763Z,37.00
2018-09-05T09:01:10.109Z,36.80
2018-09-05T09:03:38.390Z,38.00
2018-09-05T09:06:06.984Z,38.20
2018-09-05T09:08:35.219Z,39.40
2018-09-05T09:11:03.496Z,39.00
2018-09-05T09:13:31.790Z,39.40
2018-09-05T09:16:00.081Z,39.60
2018-09-05T09:18:28.370Z,38.70
2018-09-05T09:20:56.705Z,39.40
2018-09-05T09:23:25.004Z,38.70
2018-09-05T09:25:53.285Z,39.90
2018-09-05T09:28:21.563Z,39.50
2018-09-05T09:30:49.847Z,39.70
2018-09-05T09:33:18.119Z,38.40
2018-09-05T09:35:46.392Z,38.00
2018-09-05T09:38:14.669Z,40.10
2018-09-05T09:40:42.970Z,39.50
2018-09-05T09:43:11.423Z,40.20
2018-09-05T09:45:39.689Z,41.20
2018-09-05T09:48:07.975Z,41.50
2018-09-05T09:50:36.258Z,41.60
2018-09-05T09:53:04.522Z,42.50
2018-09-05T09:55:32.856Z,40.80
2018-09-05T09:58:01.132Z,40.70
2018-09-05T10:00:34.907Z,41.10
2018-09-05T10:03:08.575Z,42.20
2018-09-05T10:05:42.182Z,42.20
2018-09-05T10:08:14.650Z,42.20
2018-09-05T10:10:48.307Z,43.10
2018-09-05T10:13:22.008Z,42.70
2018-09-05T10:16:56.473Z,42.80
2018-09-05T10:19:24.674Z,42.10
2018-09-05T10:21:54.139Z,42.20
2018-09-05T10:24:22.736Z,41.90
2018-09-05T10:26:51.449Z,41.60
2018-09-05T10:29:19.719Z,40.40
2018-09-05T10:31:48.217Z,41.40
2018-09-05T10:34:16.435Z,41.80
2018-09-05T10:36:44.700Z,41.70
2018-09-05T10:39:12.959Z,42.00
2018-09-05T10:41:41.215Z,41.50
2018-09-05T10:44:09.876Z,41.00
2018-09-05T10:46:38.579Z,41.70
2018-09-05T10:49:06.974Z,42.10
2018-09-05T10:51:40.677Z,42.10
2018-09-05T10:54:09.167Z,41.70
2018-09-05T10:56:37.516Z,40.10
2018-09-05T10:59:05.839Z,40.20
2018-09-05T11:01:34.165Z,40.70
2018-09-05T11:04:02.603Z,39.20
2018-09-05T11:06:30.875Z,39.20
2018-09-05T11:08:59.159Z,38.10
2018-09-05T11:11:27.463Z,37.90
2018-09-05T11:13:55.739Z,38.50
2018-09-05T11:16:24.026Z,38.50
2018-09-05T11:18:52.313Z,38.20
2018-09-05T11:21:20.600Z,38.00
2018-09-05T11:23:49.006Z,38.60
2018-09-05T11:26:17.326Z,37.50
2018-09-05T11:28:45.630Z,37.30
2018-09-05T11:31:13.906Z,37.90
2018-09-05T11:33:42.452Z,37.50
2018-09-05T11:36:10.758Z,37.10
2018-09-05T11:38:39.358Z,36.50
2018-09-05T11:41:07.852Z,36.80
2018-09-05T11:43:36.149Z,37.00
2018-09-05T11:46:04.417Z,36.90
2018-09-05T11:48:32.727Z,36.80
2018-09-05T11:51:01.191Z,36.40
2018-09-05T11:53:29.487Z,36.20
2018-09-05T11:55:57.771Z,36.60
2018-09-05T11:58:26.059Z,36.30
2018-09-05T12:00:54.347Z,35.70
2018-09-05T12:03:22.638Z,34.80
2018-09-05T12:05:51.017Z,35.20
2018-09-05T12:08:19.297Z,35.40
2018-09-05T12:10:47.700Z,35.50
2018-09-05T12:13:16.028Z,35.50
2018-09-05T12:15:44.309Z,35.40
2018-09-05T12:18:12.581Z,35.10
2018-09-05T12:20:40.868Z,35.20
2018-09-05T12:23:09.166Z,35.50
2018-09-05T12:25:37.852Z,35.90
2018-09-05T12:28:06.214Z,35.50
2018-09-05T12:30:34.503Z,35.00
2018-09-05T12:33:02.771Z,34.60
2018-09-05T12:35:31.086Z,34.40
2018-09-05T12:37:59.366Z,34.60
2018-09-05T12:40:27.650Z,34.40
2018-09-05T12:42:55.943Z,34.20
2018-09-05T12:45:24.334Z,34.50
2018-09-05T12:47:52.609Z,34.30
2018-09-05T12:50:20.905Z,34.70
2018-09-05T12:52:49.224Z,34.40
2018-09-05T12:55:17.511Z,34.50
2018-09-05T12:57:45.791Z,35.00
2018-09-05T13:00:14.081Z,34.70
2018-09-05T13:02:42.361Z,34.50
2018-09-05T13:05:10.711Z,34.50
2018-09-05T13:07:38.920Z,34.10
2018-09-05T13:10:07.204Z,34.50
2018-09-05T13:12:35.815Z,34.50
2018-09-05T13:15:04.121Z,34.80
2018-09-05T13:17:32.396Z,35.00
2018-09-05T13:20:00.747Z,33.90
2018-09-05T13:22:29.002Z,33.80
2018-09-05T13:24:57.266Z,33.80
2018-09-05T13:27:25.536Z,33.60
2018-09-05T13:29:53.817Z,32.50
2018-09-05T13:32:22.091Z,31.90
2018-09-05T13:34:50.370Z,31.90
2018-09-05T13:37:18.659Z,31.60
2018-09-05T13:39:46.927Z,31.50
2018-09-05T13:42:15.199Z,31.20
2018-09-05T13:44:43.462Z,30.90
2018-09-05T13:47:12.020Z,30.70
2018-09-05T13:49:40.326Z,30.40
2018-09-05T13:52:12.822Z,30.40
2018-09-05T13:54:41.104Z,30.60
2018-09-05T13:57:09.426Z,30.50
2018-09-05T13:59:37.714Z,30.20
2018-09-05T14:02:06.027Z,30.00
2018-09-05T14:04:34.311Z,29.70
2018-09-05T14:07:02.775Z,29.80
2018-09-05T14:09:31.044Z,29.90
2018-09-05T14:11:59.351Z,29.80
2018-09-05T14:14:27.891Z,29.70
2018-09-05T14:16:56.397Z,29.70
2018-09-05T14:19:24.691Z,29.80
2018-09-05T14:21:52.972Z,29.50
2018-09-05T14:24:21.271Z,29.50
2018-09-05T14:26:49.547Z,29.10
2018-09-05T14:29:17.832Z,29.20
2018-09-05T14:31:46.098Z,29.10
2018-09-05T14:34:14.383Z,29.10
2018-09-05T14:36:42.667Z,29.30
2018-09-05T14:39:12.822Z,29.00
2018-09-05T14:41:41.291Z,28.90
2018-09-05T14:44:09.736Z,28.70
2018-09-05T14:46:38.006Z,28.60
2018-09-05T14:49:06.448Z,28.60
2018-09-05T14:51:34.980Z,28.60
2018-09-05T14:54:03.317Z,28.40
2018-09-05T14:56:31.568Z,28.50
2018-09-05T14:58:59.860Z,28.50
2018-09-05T15:01:28.142Z,28.50
2018-09-05T15:03:56.434Z,28.40
2018-09-05T15:06:24.733Z,28.40
2018-09-05T15:08:53.033Z,28.30
2018-09-05T15:11:21.318Z,28.30
2018-09-05T15:13:49.630Z,28.00
2018-09-05T15:16:17.902Z,28.00
2018-09-05T15:18:46.188Z,27.90
2018-09-05T15:21:14.479Z,27.80
2018-09-05T15:23:42.759Z,27.60
2018-09-05T15:26:11.055Z,27.50
2018-09-05T15:28:39.345Z,27.50
2018-09-05T15:31:07.626Z,27.50
2018-09-05T15:33:35.894Z,27.20
2018-09-05T15:36:04.191Z,27.10
2018-09-05T15:38:32.463Z,27.10
2018-09-05T15:41:00.743Z,27.10
2018-09-05T15:43:29.011Z,27.00
2018-09-05T15:45:57.313Z,27.00
2018-09-05T15:48:25.591Z,27.10
2018-09-05T15:50:53.895Z,27.00
2018-09-05T15:53:22.171Z,26.80
2018-09-05T15:55:50.444Z,26.90
2018-09-05T15:58:18.719Z,26.90
2018-09-05T16:00:46.997Z,26.80
2018-09-05T16:03:15.273Z,26.70
2018-09-05T16:05:43.554Z,26.70
2018-09-05T16:08:11.846Z,26.70
2018-09-05T16:10:40.160Z,26.70
2018-09-05T16:13:08.463Z,26.80
2018-09-05T16:15:36.880Z,26.90
2018-09-05T16:18:05.056Z,26.80
2018-09-05T16:20:33.766Z,26.80
2018-09-05T16:23:02.039Z,26.70
2018-09-05T16:25:30.496Z,26.70
2018-09-05T16:27:58.811Z,26.60
2018-09-05T16:30:27.114Z,26.50
2018-09-05T16:32:55.390Z,26.50
2018-09-05T16:35:23.710Z,26.40
2018-09-05T16:37:51.963Z,26.30
2018-09-05T16:40:20.239Z,26.20
2018-09-05T16:42:48.506Z,26.00
2018-09-05T16:45:17.167Z,25.90
2018-09-05T16:47:45.459Z,25.80
2018-09-05T16:50:13.745Z,25.70
2018-09-05T16:52:42.031Z,25.60
2018-09-05T16:55:10.343Z,25.50
2018-09-05T16:57:38.610Z,25.40
2018-09-05T17:00:07.079Z,25.20
2018-09-05T17:02:35.347Z,25.20
2018-09-05T17:05:03.651Z,25.00
2018-09-05T17:07:31.937Z,24.90
2018-09-05T17:10:00.375Z,24.80
2018-09-05T17:12:28.728Z,24.60
2018-09-05T17:14:57.151Z,24.50
2018-09-05T17:17:25.936Z,24.40
2018-09-05T17:19:54.759Z,24.20
2018-09-05T17:22:23.282Z,24.10
2018-09-05T17:24:51.758Z,23.90
2018-09-05T17:27:20.100Z,23.80
2018-09-05T17:29:49.578Z,23.60
2018-09-05T17:32:19.062Z,23.50
2018-09-05T17:34:48.479Z,23.30
2018-09-05T17:37:19.084Z,23.10
2018-09-05T17:39:48.404Z,22.80
2018-09-05T17:42:17.814Z,22.60
2018-09-05T17:44:47.495Z,22.30
2018-09-05T17:47:18.416Z,22.00
2018-09-05T17:49:48.490Z,21.90
2018-09-05T17:52:17.818Z,21.60
2018-09-05T17:54:47.457Z,21.40
2018-09-05T17:57:17.681Z,21.20
2018-09-05T17:59:47.030Z,20.90
2018-09-05T18:02:15.330Z,20.80
2018-09-05T18:04:43.776Z,20.60
2018-09-05T18:07:12.110Z,20.50
2018-09-05T18:09:40.930Z,20.50
2018-09-05T18:12:09.241Z,20.40
2018-09-05T18:14:37.709Z,20.20
2018-09-05T18:17:07.452Z,20.20
2018-09-05T18:19:37.276Z,20.10
2018-09-05T18:22:07.730Z,20.00
2018-09-05T18:24:37.350Z,19.90
2018-09-05T18:27:08.107Z,19.70
2018-09-05T18:29:37.809Z,19.60
2018-09-05T18:32:07.896Z,19.60
2018-09-05T18:34:37.172Z,19.40
2018-09-05T18:37:07.340Z,19.40
2018-09-05T18:39:35.626Z,19.20
2018-09-05T18:42:03.994Z,19.10
2018-09-05T18:44:32.270Z,19.00
2018-09-05T18:47:00.698Z,18.90
2018-09-05T18:49:28.969Z,18.80
2018-09-05T18:51:57.243Z,18.70
2018-09-05T18:54:25.638Z,18.60
2018-09-05T18:56:53.955Z,18.60
2018-09-05T18:59:22.261Z,18.50
2018-09-05T19:01:50.546Z,18.40
2018-09-05T19:04:18.867Z,18.50
2018-09-05T19:06:47.184Z,18.60
2018-09-05T19:09:15.483Z,18.60
2018-09-05T19:11:43.778Z,18.60
2018-09-05T19:14:12.110Z,18.60
2018-09-05T19:16:41.178Z,18.60
2018-09-05T19:19:09.458Z,18.60
2018-09-05T19:21:37.940Z,18.60
2018-09-05T19:24:06.269Z,18.60
2018-09-05T19:26:34.546Z,18.50
2018-09-05T19:29:02.888Z,18.40
2018-09-05T19:31:31.241Z,18.40
2018-09-05T19:33:59.527Z,18.30
2018-09-05T19:36:27.821Z,18.20
2018-09-05T19:38:56.174Z,18.10
2018-09-05T19:41:24.984Z,18.00
2018-09-05T19:43:53.369Z,17.90
2018-09-05T19:46:21.831Z,17.80
2018-09-05T19:48:50.124Z,17.60
2018-09-05T19:51:18.453Z,17.60
2018-09-05T19:53:47.096Z,17.40
2018-09-05T19:56:15.391Z,17.40
2018-09-05T19:58:43.783Z,17.40
2018-09-05T20:01:12.244Z,17.30
2018-09-05T20:03:40.611Z,17.30
2018-09-05T20:06:09.150Z,17.30
2018-09-05T20:08:37.539Z,17.30
2018-09-05T20:11:05.931Z,17.20
2018-09-05T20:13:34.507Z,17.10
2018-09-05T20:16:02.858Z,16.90
2018-09-05T20:18:31.150Z,16.80
2018-09-05T20:20:59.883Z,16.70
2018-09-05T20:23:28.543Z,16.60
2018-09-05T20:25:56.795Z,16.70
2018-09-05T20:28:25.102Z,16.80
2018-09-05T20:30:53.493Z,16.80
2018-09-05T20:33:22.669Z,16.60
2018-09-05T20:35:51.082Z,16.40
2018-09-05T20:38:20.254Z,16.30
2018-09-05T20:40:48.551Z,16.30
2018-09-05T20:43:16.818Z,16.20
2018-09-05T20:45:45.114Z,16.20
2018-09-05T20:48:13.451Z,16.10
2018-09-05T20:50:41.717Z,16.10
2018-09-05T20:53:10.125Z,16.00
2018-09-05T20:55:38.383Z,15.90
2018-09-05T20:58:06.690Z,15.80
2018-09-05T21:00:34.990Z,15.70
2018-09-05T21:03:03.263Z,15.60
2018-09-05T21:05:31.541Z,15.90
2018-09-05T21:07:59.815Z,15.80
2018-09-05T21:10:28.075Z,15.70
2018-09-05T21:12:56.341Z,15.70
2018-09-05T21:15:24.672Z,15.70
2018-09-05T21:17:52.965Z,15.50
2018-09-05T21:20:21.218Z,15.60
2018-09-05T21:22:49.488Z,15.50
2018-09-05T21:25:17.753Z,15.50
2018-09-05T21:27:45.998Z,15.60
2018-09-05T21:30:14.279Z,15.60
2018-09-05T21:32:42.550Z,15.60
2018-09-05T21:35:10.816Z,15.50
2018-09-05T21:37:39.076Z,15.50
2018-09-05T21:40:07.454Z,15.40
2018-09-05T21:42:35.773Z,15.20
2018-09-05T21:45:04.043Z,15.10
2018-09-05T21:47:32.298Z,15.00
2018-09-05T21:50:00.556Z,14.90
2018-09-05T21:52:28.811Z,14.90
2018-09-05T21:54:57.086Z,15.00
2018-09-05T21:57:25.548Z,15.10
2018-09-05T21:59:53.810Z,15.20
2018-09-05T22:02:22.071Z,15.00
2018-09-05T22:04:50.347Z,14.90
2018-09-05T22:07:18.618Z,15.00
2018-09-05T22:09:46.941Z,14.90
2018-09-05T22:12:15.214Z,14.70
2018-09-05T22:14:43.477Z,14.70
2018-09-05T22:17:11.760Z,14.50
2018-09-05T22:19:40.032Z,14.50
2018-09-05T22:22:08.290Z,14.60
2018-09-05T22:24:36.562Z,14.50
2018-09-05T22:27:04.825Z,14.40
2018-09-05T22:29:33.090Z,14.40
2018-09-05T22:32:01.364Z,14.40
2018-09-05T22:34:29.740Z,14.30
2018-09-05T22:36:58.001Z,14.30
2018-09-05T22:39:26.258Z,14.20
2018-09-05T22:41:54.590Z,14.20
2018-09-05T22:44:34.247Z,14.10
2018-09-05T22:47:14.025Z,14.00
2018-09-05T22:49:59.272Z,13.90
2018-09-05T22:52:42.360Z,14.10
2018-09-05T22:55:23.295Z,14.00
2018-09-05T22:58:20.228Z,14.00
2018-09-05T23:00:57.690Z,13.90
2018-09-05T23:03:37.256Z,13.80
2018-09-05T23:06:21.722Z,13.80
2018-09-05T23:08:50.024Z,13.80
2018-09-05T23:11:29.871Z,14.10
2018-09-05T23:14:10.456Z,14.10
2018-09-05T23:20:02.642Z,14.10
2018-09-05T23:22:42.304Z,14.10
2018-09-05T23:25:10.889Z,13.80
2018-09-05T23:27:39.207Z,13.70
2018-09-05T23:30:07.681Z,13.60
2018-09-05T23:32:35.978Z,13.70
2018-09-05T23:35:04.338Z,13.60
2018-09-05T23:37:32.632Z,13.60
2018-09-05T23:40:00.915Z,13.70
2018-09-05T23:42:29.184Z,13.80
2018-09-05T23:44:57.462Z,13.80
2018-09-05T23:47:25.741Z,13.70
2018-09-05T23:49:54.007Z,13.80
2018-09-05T23:52:22.495Z,13.70
2018-09-05T23:54:50.772Z,13.70
2018-09-05T23:57:19.107Z,13.80
2018-09-05T23:59:47.393Z,13.80
